Time;durP1;ratioP1;P1;durP2;ratioP2;P2;SDS_P1;SDS_P2;PMS_P1;PMS_P2;Temp;Humidity;BMP_temperature;BMP_pressure;BME280_temperature;BME280_humidity;BME280_pressure;Samples;Min_cycle;Max_cycle;Signal;HPM_P1;HPM_P2
2022/11/03 00:01:38;;;;;;;15.10;2.50;;;16.60;99.90;;;;;;6270464;22;20129;-83
2022/11/03 00:04:06;;;;;;;17.30;3.30;;;17.20;99.90;;;;;;6271810;22;20027;-83
2022/11/03 00:06:32;;;;;;;16.30;2.92;;;16.00;99.90;;;;;;6271885;22;20014;-83
2022/11/03 00:08:59;;;;;;;18.10;2.95;;;13.30;99.90;;;;;;6272057;22;20068;-83
2022/11/03 00:11:25;;;;;;;17.23;2.67;;;14.00;99.90;;;;;;6272484;22;20352;-84
2022/11/03 00:13:50;;;;;;;16.35;3.25;;;14.00;99.90;;;;;;6271548;22;20024;-83
2022/11/03 00:16:16;;;;;;;14.13;2.53;;;9.70;99.90;;;;;;6272012;22;20585;-83
2022/11/03 00:18:42;;;;;;;14.32;2.95;;;15.20;99.90;;;;;;6271892;22;19996;-83
2022/11/03 00:21:12;;;;;;;9.68;3.10;;;10.70;99.90;;;;;;6272162;22;20492;-84
2022/11/03 00:23:42;;;;;;;17.27;2.92;;;10.60;99.90;;;;;;6272136;22;20000;-83
2022/11/03 00:26:10;;;;;;;15.77;3.03;;;17.40;99.90;;;;;;6271878;22;20486;-83
2022/11/03 00:28:36;;;;;;;18.53;3.40;;;10.90;99.90;;;;;;6271898;22;20007;-83
2022/11/03 00:31:06;;;;;;;16.88;3.13;;;11.50;99.90;;;;;;6269468;22;20350;-83
2022/11/03 00:33:32;;;;;;;16.27;2.78;;;17.60;99.90;;;;;;6270157;22;20003;-84
2022/11/03 00:36:02;;;;;;;16.38;2.90;;;13.50;99.90;;;;;;6272335;22;20003;-83
2022/11/03 00:38:28;;;;;;;15.27;2.90;;;14.70;99.90;;;;;;6272664;22;20000;-83
2022/11/03 00:40:55;;;;;;;14.45;3.70;;;14.10;99.90;;;;;;6273034;22;20000;-83
2022/11/03 00:43:22;;;;;;;13.85;2.85;;;17.10;99.90;;;;;;6271588;22;20470;-83
2022/11/03 00:45:48;;;;;;;20.98;2.95;;;17.60;99.90;;;;;;6269041;22;20416;-83
2022/11/03 00:48:29;;;;;;;12.20;2.83;;;10.80;99.90;;;;;;6271262;22;20010;-83
2022/11/03 00:51:10;;;;;;;13.00;3.10;;;12.60;99.90;;;;;;6270849;22;20011;-84
2022/11/03 00:53:57;;;;;;;16.98;3.33;;;12.10;99.90;;;;;;6271807;22;20057;-83
2022/11/03 00:56:33;;;;;;;16.90;3.40;;;14.00;99.90;;;;;;6271067;22;20047;-84
2022/11/03 00:59:00;;;;;;;24.73;3.65;;;13.60;99.90;;;;;;6270193;22;20447;-83
2022/11/03 01:01:32;;;;;;;12.05;2.95;;;14.70;99.90;;;;;;6271933;22;20010;-83
2022/11/03 01:06:50;;;;;;;19.00;3.15;;;10.70;99.90;;;;;;6271878;22;20018;-83
2022/11/03 01:09:33;;;;;;;8.73;2.80;;;16.10;99.90;;;;;;6271720;22;20053;-83
2022/11/03 01:12:00;;;;;;;13.23;2.97;;;10.90;99.90;;;;;;6273141;22;20069;-84
2022/11/03 01:14:34;;;;;;;15.65;3.58;;;14.80;99.90;;;;;;6272530;22;20547;-84
2022/11/03 01:17:01;;;;;;;18.85;3.38;;;14.40;99.90;;;;;;6271822;22;20000;-84
2022/11/03 01:19:27;;;;;;;17.85;3.03;;;13.30;99.90;;;;;;6272621;22;20004;-84
2022/11/03 01:21:53;;;;;;;12.68;2.80;;;14.70;99.90;;;;;;6271691;22;20390;-84
2022/11/03 01:24:20;;;;;;;13.85;3.25;;;17.10;99.90;;;;;;6270040;22;20012;-83
2022/11/03 01:26:46;;;;;;;23.80;4.43;;;;;;;;;;6270443;22;19999;-84
2022/11/03 01:29:11;;;;;;;16.63;3.33;;;15.70;99.90;;;;;;6271240;22;20057;-83
2022/11/03 01:31:37;;;;;;;14.05;3.25;;;16.90;99.90;;;;;;6271190;22;20007;-83
2022/11/03 01:34:02;;;;;;;16.45;3.67;;;15.40;99.90;;;;;;6271307;22;20069;-84
2022/11/03 01:36:28;;;;;;;20.38;3.45;;;;;;;;;;6272427;22;20000;-83
2022/11/03 01:38:55;;;;;;;15.55;3.53;;;14.60;99.90;;;;;;6271244;22;19996;-84
2022/11/03 01:41:26;;;;;;;15.70;3.08;;;16.50;99.90;;;;;;6271422;22;20077;-84
2022/11/03 01:44:12;;;;;;;19.90;3.45;;;11.20;99.90;;;;;;6270193;22;20571;-83
2022/11/03 01:46:48;;;;;;;17.33;3.58;;;13.50;99.90;;;;;;6254023;22;20027;-83
2022/11/03 01:49:18;;;;;;;18.58;3.30;;;10.80;99.90;;;;;;6271340;22;20075;-83
2022/11/03 01:51:48;;;;;;;17.77;3.38;;;17.00;99.90;;;;;;6271371;22;20010;-83
2022/11/03 01:54:17;;;;;;;17.67;3.28;;;17.00;99.90;;;;;;6271071;22;20421;-83
2022/11/03 01:56:47;;;;;;;16.83;3.03;;;11.10;99.90;;;;;;6270968;22;20030;-83
2022/11/03 01:59:15;;;;;;;19.98;3.10;;;11.50;99.90;;;;;;6272848;22;20049;-83
2022/11/03 02:01:43;;;;;;;19.83;3.40;;;17.10;99.90;;;;;;6273396;22;19999;-84
2022/11/03 02:04:19;;;;;;;15.85;3.33;;;17.60;99.90;;;;;;6273178;22;20126;-83
2022/11/03 02:06:49;;;;;;;11.90;2.85;;;11.40;99.90;;;;;;6273201;22;20012;-84
2022/11/03 02:09:15;;;;;;;15.38;3.20;;;16.00;99.90;;;;;;6273061;22;20031;-83
2022/11/03 02:14:25;;;;;;;12.98;2.90;;;13.20;99.90;;;;;;6273022;22;20065;-84
2022/11/03 02:16:55;;;;;;;18.00;3.15;;;10.80;99.90;;;;;;6272663;22;20332;-83
2022/11/03 02:19:30;;;;;;;14.30;2.90;;;;;;;;;;6272838;22;20383;-83
2022/11/03 02:22:05;;;;;;;17.98;3.30;;;17.10;99.90;;;;;;6273258;22;20004;-83
2022/11/03 02:24:31;;;;;;;16.48;3.15;;;;;;;;;;6274337;22;20018;-83
2022/11/03 02:26:56;;;;;;;19.70;3.10;;;13.70;99.90;;;;;;6273168;22;20420;-84
2022/11/03 02:29:22;;;;;;;12.68;2.70;;;16.80;99.90;;;;;;6272913;22;19996;-84
2022/11/03 02:31:55;;;;;;;17.63;3.13;;;13.40;99.90;;;;;;6272552;22;20000;-84
2022/11/03 02:34:38;;;;;;;11.25;2.63;;;17.40;99.90;;;;;;6272802;22;20432;-83
2022/11/03 02:37:11;;;;;;;14.32;3.05;;;14.20;99.90;;;;;;6274173;22;20006;-83
2022/11/03 02:39:42;;;;;;;11.30;2.55;;;10.90;99.90;;;;;;6273276;22;20004;-83
2022/11/03 02:42:10;;;;;;;14.20;2.40;;;11.70;99.90;;;;;;6272805;22;19999;-83
2022/11/03 02:44:37;;;;;;;;;;;13.40;99.90;;;;;;6272734;22;20004;-83
2022/11/03 02:47:06;;;;;;;13.90;2.60;;;9.60;99.90;;;;;;6273684;22;19945;-84
2022/11/03 02:49:47;;;;;;;13.88;3.00;;;11.20;99.90;;;;;;6272343;22;20019;-83
2022/11/03 02:52:39;;;;;;;27.33;3.40;;;17.40;99.90;;;;;;6272931;22;20107;-83
2022/11/03 02:55:18;;;;;;;17.75;3.63;;;10.40;99.90;;;;;;6273974;22;20748;-83
2022/11/03 02:57:53;;;;;;;12.27;3.22;;;16.20;99.90;;;;;;6272963;22;20000;-83
2022/11/03 03:00:20;;;;;;;15.90;2.58;;;17.10;99.90;;;;;;6272511;22;20030;-83
2022/11/03 03:02:55;;;;;;;15.55;2.85;;;13.90;99.90;;;;;;6272775;22;20071;-83
2022/11/03 03:05:25;;;;;;;11.55;2.40;;;10.10;99.90;;;;;;6272512;22;20019;-83
2022/11/03 03:07:56;;;;;;;11.93;2.67;;;17.10;99.90;;;;;;6272744;22;20031;-83
2022/11/03 03:10:27;;;;;;;20.50;3.33;;;17.00;99.90;;;;;;6272291;22;20007;-83
2022/11/03 03:12:56;;;;;;;21.75;3.67;;;10.10;99.90;;;;;;6272828;22;20000;-83
2022/11/03 03:15:31;;;;;;;19.05;3.10;;;13.20;99.90;;;;;;6272433;22;20083;-83
2022/11/03 03:18:23;;;;;;;15.57;3.80;;;10.50;99.90;;;;;;6272071;22;20006;-83
2022/11/03 03:21:00;;;;;;;15.63;2.67;;;17.10;99.90;;;;;;6272780;22;20079;-83
2022/11/03 03:23:34;;;;;;;9.68;2.70;;;13.10;99.90;;;;;;6272628;22;20004;-83
2022/11/03 03:26:08;;;;;;;16.13;2.85;;;14.40;99.90;;;;;;6272619;22;20081;-83
2022/11/03 03:28:46;;;;;;;19.13;3.53;;;17.20;99.90;;;;;;6271698;22;20027;-85
2022/11/03 03:31:15;;;;;;;15.05;2.55;;;15.90;99.90;;;;;;6272476;22;20145;-83
2022/11/03 03:33:43;;;;;;;20.48;2.72;;;10.60;99.90;;;;;;6272403;22;19996;-83
2022/11/03 03:36:12;;;;;;;17.70;2.67;;;13.20;99.90;;;;;;6271501;22;20341;-84
2022/11/03 03:38:43;;;;;;;15.18;3.40;;;13.00;99.90;;;;;;6271683;22;20074;-84
2022/11/03 03:41:12;;;;;;;14.23;3.08;;;14.80;99.90;;;;;;6272376;22;20004;-84
2022/11/03 03:43:39;;;;;;;14.02;2.63;;;13.00;99.90;;;;;;6272903;22;20046;-84
2022/11/03 03:46:12;;;;;;;19.33;5.32;;;13.00;99.90;;;;;;6273397;22;20000;-83
2022/11/03 03:48:38;;;;;;;18.58;3.30;;;13.00;99.90;;;;;;6272842;22;19999;-83
2022/11/03 03:51:05;;;;;;;13.07;3.05;;;15.00;99.90;;;;;;6272271;22;20015;-84
2022/11/03 03:53:31;;;;;;;12.90;2.53;;;12.20;99.90;;;;;;6272211;22;20023;-83
2022/11/03 03:55:58;;;;;;;15.90;3.00;;;13.50;99.90;;;;;;6272284;22;20030;-83
2022/11/03 03:58:23;;;;;;;21.73;2.92;;;15.30;99.90;;;;;;6270799;22;20003;-84
2022/11/03 04:00:49;;;;;;;22.45;3.25;;;17.00;99.90;;;;;;6272807;22;20065;-83
2022/11/03 04:03:18;;;;;;;22.40;3.25;;;12.20;99.90;;;;;;6272337;22;20000;-83
2022/11/03 04:05:44;;;;;;;;;;;12.90;99.90;;;;;;6272476;22;20007;-83
2022/11/03 04:08:13;;;;;;;20.20;2.67;;;13.00;99.90;;;;;;6272135;22;20418;-84
2022/11/03 04:10:40;;;;;;;19.27;2.83;;;;;;;;;;6272159;22;20019;-83
2022/11/03 04:23:48;;;;;;;16.50;2.70;;;16.90;99.90;;;;;;6271796;22;20058;-83
2022/11/03 04:26:17;;;;;;;12.15;3.25;;;15.20;99.90;;;;;;6271460;22;20004;-84
2022/11/03 04:28:43;;;;;;;17.73;2.30;;;11.40;99.90;;;;;;6271197;22;19999;-84
2022/11/03 04:31:11;;;;;;;10.10;2.20;;;12.30;99.90;;;;;;6273094;22;20011;-84
2022/11/03 04:33:40;;;;;;;20.52;2.60;;;10.00;99.90;;;;;;6272828;22;20020;-84
2022/11/03 04:36:25;;;;;;;12.27;2.20;;;13.80;99.90;;;;;;6272560;22;20382;-84
2022/11/03 04:38:51;;;;;;;16.00;2.40;;;12.80;99.90;;;;;;6271986;22;20269;-84
2022/11/03 04:41:23;;;;;;;10.57;2.40;;;11.10;99.90;;;;;;6271867;22;20077;-84
2022/11/03 04:43:51;;;;;;;15.15;2.55;;;16.30;99.90;;;;;;6271190;22;19999;-83
2022/11/03 04:46:25;;;;;;;15.20;2.80;;;13.00;99.90;;;;;;6272114;22;20003;-83
2022/11/03 04:48:52;;;;;;;12.73;2.88;;;16.90;99.90;;;;;;6271864;22;20443;-83
2022/11/03 04:51:24;;;;;;;11.00;2.13;;;16.20;99.90;;;;;;6269867;22;20012;-83
2022/11/03 04:53:54;;;;;;;13.55;2.75;;;12.90;99.90;;;;;;6271794;22;20014;-83
2022/11/03 04:56:22;;;;;;;11.60;2.70;;;15.40;99.90;;;;;;6271658;22;20057;-83
2022/11/03 04:58:48;;;;;;;;;;;12.90;99.90;;;;;;6271856;22;20036;-84
2022/11/03 05:01:17;;;;;;;15.07;2.42;;;12.90;99.90;;;;;;6271781;22;20375;-85
2022/11/03 05:03:45;;;;;;;14.55;2.67;;;13.00;99.90;;;;;;6272125;22;20003;-86
2022/11/03 05:06:14;;;;;;;14.40;2.25;;;13.00;99.90;;;;;;6272364;22;20008;-87
2022/11/03 05:08:41;;;;;;;9.75;2.33;;;13.00;99.90;;;;;;6271535;22;20031;-88
2022/11/03 05:11:19;;;;;;;18.05;2.60;;;14.40;99.90;;;;;;6271616;22;20440;-86
2022/11/03 05:13:45;;;;;;;10.75;2.10;;;;;;;;;;6270787;22;20301;-86
2022/11/03 05:16:11;;;;;;;11.18;2.00;;;;;;;;;;6270571;22;20069;-87
2022/11/03 05:18:41;;;;;;;12.95;2.15;;;15.10;99.90;;;;;;6270295;22;20390;-87
2022/11/03 05:21:10;;;;;;;8.48;2.03;;;13.10;99.90;;;;;;6268804;22;20039;-87
2022/11/03 05:23:43;;;;;;;11.82;2.50;;;13.10;99.90;;;;;;6271387;22;20000;-87
2022/11/03 05:26:24;;;;;;;12.50;2.38;;;13.20;99.90;;;;;;6271322;22;20014;-88
2022/11/03 05:29:15;;;;;;;9.98;2.70;;;13.10;99.90;;;;;;6271747;22;20000;-87
2022/11/03 05:31:44;;;;;;;11.75;2.40;;;13.10;99.90;;;;;;6259635;22;20012;-87
2022/11/03 05:34:33;;;;;;;16.10;2.50;;;13.10;99.90;;;;;;6272226;22;20000;-88
2022/11/03 05:37:06;;;;;;;18.85;2.58;;;10.30;99.90;;;;;;6271225;22;20003;-88
2022/11/03 05:39:37;;;;;;;14.27;2.63;;;10.60;99.90;;;;;;6270731;22;19999;-86
2022/11/03 05:42:21;;;;;;;10.90;2.85;;;13.10;99.90;;;;;;6269259;22;20003;-85
2022/11/03 05:44:49;;;;;;;12.07;2.63;;;13.20;99.90;;;;;;6271247;22;20049;-86
2022/11/03 05:47:21;;;;;;;15.88;3.05;;;13.10;99.90;;;;;;6272042;22;20011;-87
2022/11/03 05:49:55;;;;;;;13.88;2.50;;;15.60;99.90;;;;;;6265454;22;20003;-87
2022/11/03 05:52:24;;;;;;;13.73;2.85;;;13.20;99.90;;;;;;6268779;22;20340;-89
2022/11/03 05:54:50;;;;;;;14.00;2.60;;;;;;;;;;6269172;22;20420;-86
2022/11/03 05:57:17;;;;;;;11.93;3.05;;;11.10;99.90;;;;;;6269650;22;20003;-85
2022/11/03 05:59:46;;;;;;;22.67;2.80;;;9.60;99.90;;;;;;6271395;22;20432;-86
2022/11/03 06:02:28;;;;;;;16.45;3.55;;;13.20;99.90;;;;;;6271524;22;19996;-89
2022/11/03 06:04:53;;;;;;;16.70;3.17;;;13.60;99.90;;;;;;6270029;22;20007;-86
2022/11/03 06:07:37;;;;;;;14.00;3.13;;;10.90;99.90;;;;;;6270942;22;19995;-89
2022/11/03 06:10:24;;;;;;;14.00;3.00;;;13.30;99.90;;;;;;6270290;22;20008;-87
2022/11/03 06:12:50;;;;;;;11.23;2.50;;;;;;;;;;6270214;22;20004;-87
2022/11/03 06:15:28;;;;;;;15.13;2.85;;;13.30;99.90;;;;;;6271626;22;20020;-86
2022/11/03 06:17:54;;;;;;;12.05;3.10;;;;;;;;;;6271305;22;20669;-87
2022/11/03 06:20:21;;;;;;;9.32;2.90;;;13.30;99.90;;;;;;6271287;22;20000;-89
2022/11/03 06:22:47;;;;;;;12.77;2.88;;;13.30;99.90;;;;;;6275362;22;20000;-90
2022/11/03 06:25:23;;;;;;;17.95;3.33;;;16.70;99.90;;;;;;6293095;22;20075;-90
2022/11/03 06:28:22;;;;;;;20.95;4.45;;;13.40;99.90;;;;;;6297054;22;19992;-88
2022/11/03 06:31:26;;;;;;;11.00;3.10;;;13.40;99.90;;;;;;6284126;22;20014;-92
2022/11/03 06:59:13;;;;;;;17.38;4.97;;;13.50;99.90;;;;;;5732544;24;20189;-89
2022/11/03 07:04:36;;;;;;;17.08;4.05;;;;;;;;;;6065287;23;20086;-90
2022/11/03 07:07:45;;;;;;;18.70;4.82;;;13.50;99.90;;;;;;6040014;23;20018;-90
2022/11/03 07:11:03;;;;;;;9.43;3.75;;;13.50;99.90;;;;;;6040689;23;20098;-94
2022/11/03 07:13:33;;;;;;;19.05;4.43;;;13.50;99.90;;;;;;6061104;23;20007;-94
2022/11/03 07:16:04;;;;;;;13.75;4.13;;;;;;;;;;6202594;22;20007;-89
2022/11/03 07:18:48;;;;;;;11.55;3.53;;;13.50;99.90;;;;;;6271994;22;20046;-88
2022/11/03 07:21:42;;;;;;;20.33;4.13;;;13.60;99.90;;;;;;6272138;22;20004;-89
2022/11/03 07:24:57;;;;;;;;;;;;;;;;;;;;;
2022/11/03 07:27:33;;;;;;;16.33;3.72;;;13.50;99.90;;;;;;6278574;22;20078;-95
2022/11/03 07:30:20;;;;;;;21.58;3.67;;;13.60;99.90;;;;;;6279231;22;20522;-91
2022/11/03 07:32:53;;;;;;;10.93;3.15;;;13.60;99.90;;;;;;6277961;22;20011;-93
2022/11/03 07:35:35;;;;;;;;;;;;;;;;;;;;;
2022/11/03 07:38:08;;;;;;;13.90;3.58;;;13.60;99.90;;;;;;6276865;22;20091;-92
2022/11/03 07:51:07;;;;;;;13.93;3.15;;;13.60;99.90;;;;;;6093810;23;20065;-89
2022/11/03 08:15:09;;;;;;;11.50;3.38;;;;;;;;;;5798969;24;20014;-94
2022/11/03 08:18:15;;;;;;;13.32;2.97;;;13.80;99.90;;;;;;5898013;24;20058;-91
2022/11/03 08:20:45;;;;;;;10.20;3.38;;;;;;;;;;5875966;24;20013;-92
2022/11/03 08:23:15;;;;;;;11.30;2.78;;;;;;;;;;5874937;24;20282;-90
2022/11/03 08:25:46;;;;;;;13.75;3.42;;;;;;;;;;5874084;24;20021;-92
2022/11/03 08:32:24;;;;;;;3.78;1.60;;;12.60;99.90;;;;;;5891987;24;20513;-94
2022/11/03 08:35:02;;;;;;;;;;;;;;;;;;;;;
2022/11/03 08:38:21;;;;;;;6.22;1.50;;;12.20;99.90;;;;;;6035517;23;20096;-92
2022/11/03 08:44:35;;;;;;;2.35;1.15;;;12.10;99.90;;;;;;5982211;23;20237;-93
2022/11/03 08:47:10;;;;;;;3.00;1.83;;;;;;;;;;5965141;23;20049;-93
2022/11/03 08:56:29;;;;;;;5.13;1.40;;;;;;;;;;5845665;24;20079;-93
2022/11/03 08:59:51;;;;;;;;;;;;;;;;;;;;;
2022/11/03 09:03:16;;;;;;;;;;;;;;;;;;;;;
2022/11/03 09:06:41;;;;;;;;;;;;;;;;;;;;;
2022/11/03 09:23:48;;;;;;;;;;;;;;;;;;;;;
2022/11/03 09:30:17;;;;;;;;;;;;;;;;;;;;;
2022/11/03 09:44:01;;;;;;;;;;;;;;;;;;;;;
2022/11/03 09:46:31;;;;;;;4.43;2.38;;;12.30;99.90;;;;;;6034572;23;20062;-91
2022/11/03 09:56:37;;;;;;;5.97;3.67;;;12.40;99.90;;;;;;6036219;23;20010;-93
2022/11/03 09:59:48;;;;;;;;;;;;;;;;;;;;;
2022/11/03 10:03:26;;;;;;;;;;;;;;;;;;;;;
2022/11/03 10:06:31;;;;;;;;;;;;;;;;;;;;;
2022/11/03 10:16:31;;;;;;;;;;;;;;;;;;;;;
2022/11/03 10:19:51;;;;;;;;;;;;;;;;;;;;;
2022/11/03 10:28:45;;;;;;;5.47;2.83;;;;;;;;;;6225896;22;20057;-93
2022/11/03 10:31:43;;;;;;;3.85;2.95;;;;;;;;;;6275820;22;20476;-92
2022/11/03 10:34:26;;;;;;;;;;;12.60;99.90;;;;;;6279142;22;20074;-91
2022/11/03 10:37:24;;;;;;;6.40;2.85;;;12.80;99.90;;;;;;6276211;22;19903;-92
2022/11/03 10:39:58;;;;;;;8.20;2.42;;;12.80;99.90;;;;;;6275225;22;20011;-90
2022/11/03 10:43:02;;;;;;;;;;;;;;;;;;;;;
2022/11/03 10:45:39;;;;;;;;;;;;;;;;;;;;;
2022/11/03 10:48:09;;;;;;;8.18;2.67;;;12.70;99.90;;;;;;6278203;22;20074;-91
2022/11/03 10:50:35;;;;;;;7.40;3.35;;;;;;;;;;6274901;22;20011;-92
2022/11/03 10:53:03;;;;;;;6.97;2.30;;;;;;;;;;6275537;22;20004;-91
2022/11/03 10:55:31;;;;;;;;;;;12.60;99.90;;;;;;6275749;22;20454;-92
2022/11/03 10:58:19;;;;;;;4.57;2.75;;;12.60;99.90;;;;;;6274876;22;19899;-91
2022/11/03 11:00:53;;;;;;;4.82;3.05;;;;;;;;;;6274901;22;20030;-91
2022/11/03 11:03:22;;;;;;;6.65;3.10;;;;;;;;;;6276107;22;20444;-91
2022/11/03 11:05:48;;;;;;;7.53;3.22;;;;;;;;;;6275619;22;20011;-90
2022/11/03 11:12:18;;;;;;;;;;;;;;;;;;;;;
2022/11/03 11:14:56;;;;;;;6.43;3.17;;;12.60;99.90;;;;;;6095540;23;20098;-93
2022/11/03 11:17:43;;;;;;;2.35;1.80;;;12.60;99.90;;;;;;6255048;22;20061;-88
2022/11/03 11:20:23;;;;;;;8.40;2.00;;;12.70;99.90;;;;;;6274352;22;20336;-90
2022/11/03 11:26:51;;;;;;;;;;;;;;;;;;;;;
2022/11/03 11:36:44;;;;;;;3.45;2.08;;;12.90;99.90;;;;;;5986242;24;20035;-92
2022/11/03 11:43:12;;;;;;;5.22;1.70;;;12.90;99.90;;;;;;6063277;23;20018;-93
2022/11/03 11:46:41;;;;;;;2.58;1.63;;;12.90;99.90;;;;;;5974736;23;20016;-92
2022/11/03 11:49:09;;;;;;;2.13;1.40;;;;;;;;;;5930247;24;20004;-91
2022/11/03 11:52:08;;;;;;;3.70;1.80;;;12.90;99.90;;;;;;5926003;24;20107;-92
2022/11/03 11:54:55;;;;;;;;;;;;;;;;;;;;;
2022/11/03 11:57:22;;;;;;;2.95;1.90;;;;;;;;;;6220833;22;20094;-90
2022/11/03 11:59:54;;;;;;;4.05;1.50;;;12.90;99.90;;;;;;6275503;22;20007;-91
2022/11/03 12:02:28;;;;;;;2.38;1.27;;;12.90;99.90;;;;;;6276233;22;20008;-92
2022/11/03 12:05:03;;;;;;;4.03;1.52;;;;;;;;;;6275880;22;20011;-92
2022/11/03 12:08:21;;;;;;;2.20;1.50;;;13.00;99.90;;;;;;6274699;22;20129;-92
2022/11/03 12:10:56;;;;;;;5.63;1.52;;;13.00;99.90;;;;;;6267871;22;20325;-90
2022/11/03 12:13:51;;;;;;;5.53;1.75;;;13.00;99.90;;;;;;6274784;22;20011;-92
2022/11/03 12:16:31;;;;;;;3.75;1.27;;;13.00;99.90;;;;;;6275468;22;20007;-92
2022/11/03 12:19:38;;;;;;;2.20;1.38;;;13.00;99.90;;;;;;6274926;22;20041;-91
2022/11/03 12:22:29;;;;;;;6.40;1.63;;;12.90;99.90;;;;;;6274433;22;20420;-92
2022/11/03 12:25:13;;;;;;;;;;;;;;;;;;;;;
2022/11/03 12:27:54;;;;;;;;;;;;;;;;;;;;;
2022/11/03 12:30:28;;;;;;;4.32;1.70;;;;;;;;;;6276756;22;20103;-92
2022/11/03 12:32:54;;;;;;;4.25;1.40;;;;;;;;;;6275495;22;20045;-91
2022/11/03 12:35:20;;;;;;;5.95;1.95;;;;;;;;;;6274223;22;20011;-91
2022/11/03 12:38:04;;;;;;;4.85;1.88;;;;;;;;;;6273764;22;20019;-92
2022/11/03 12:40:32;;;;;;;3.22;1.48;;;;;;;;;;6272824;22;20030;-91
2022/11/03 12:43:00;;;;;;;5.15;1.90;;;;;;;;;;6274198;22;20003;-90
2022/11/03 12:45:32;;;;;;;2.50;1.38;;;13.00;99.90;;;;;;6273995;22;20022;-91
2022/11/03 12:48:00;;;;;;;4.50;1.40;;;13.00;99.90;;;;;;6274201;22;20030;-92
2022/11/03 12:50:40;;;;;;;;;;;;;;;;;;;;;
2022/11/03 12:53:18;;;;;;;3.42;1.40;;;;;;;;;;6275158;22;20086;-91
2022/11/03 12:55:44;;;;;;;4.82;1.27;;;;;;;;;;6273809;22;20003;-91
2022/11/03 12:58:28;;;;;;;10.55;1.80;;;;;;;;;;6275253;22;20012;-91
2022/11/03 13:00:54;;;;;;;5.18;1.17;;;;;;;;;;6275462;22;20007;-91
2022/11/03 13:03:31;;;;;;;4.68;1.35;;;;;;;;;;6275967;22;20441;-89
2022/11/03 13:06:10;;;;;;;;;;;;;;;;;;;;;
2022/11/03 13:08:39;;;;;;;15.23;5.10;;;12.60;99.90;;;;;;6275694;22;20078;-91
2022/11/03 13:14:05;;;;;;;3.97;1.40;;;;;;;;;;6275556;22;20517;-91
2022/11/03 13:16:33;;;;;;;7.45;1.65;;;12.80;99.90;;;;;;6273764;22;20004;-91
2022/11/03 13:18:59;;;;;;;8.35;1.70;;;12.70;99.90;;;;;;6275171;22;20000;-89
2022/11/03 13:21:28;;;;;;;9.85;1.60;;;;;;;;;;6274479;22;20007;-91
2022/11/03 13:23:57;;;;;;;11.63;2.45;;;;;;;;;;6275056;22;20027;-91
2022/11/03 13:26:23;;;;;;;8.38;1.88;;;;;;;;;;6274435;22;20000;-90
2022/11/03 13:28:51;;;;;;;7.07;1.58;;;;;;;;;;6274042;22;20054;-91
2022/11/03 13:31:17;;;;;;;11.55;3.42;;;;;;;;;;6274110;22;20087;-91
2022/11/03 13:33:51;;;;;;;7.47;1.98;;;;;;;;;;6273200;22;20086;-90
2022/11/03 13:36:35;;;;;;;6.70;1.98;;;;;;;;;;6272954;22;20332;-90
2022/11/03 13:39:04;;;;;;;9.05;2.05;;;15.10;99.90;;;;;;6272020;22;20027;-90
2022/11/03 13:41:30;;;;;;;11.48;3.67;;;;;;;;;;6272176;22;20081;-90
2022/11/03 13:43:56;;;;;;;9.70;2.78;;;12.80;99.90;;;;;;6273847;22;19992;-90
2022/11/03 13:46:22;;;;;;;5.50;1.20;;;13.10;99.90;;;;;;6274740;22;20027;-89
2022/11/03 13:48:48;;;;;;;7.28;1.65;;;13.10;99.90;;;;;;6271918;22;20340;-91
2022/11/03 13:51:16;;;;;;;8.15;1.70;;;13.00;99.90;;;;;;6271551;22;20016;-91
2022/11/03 13:53:42;;;;;;;11.07;1.65;;;;;;;;;;6271154;22;20347;-90
2022/11/03 13:56:11;;;;;;;9.40;1.70;;;13.40;99.90;;;;;;6271911;22;20077;-90
2022/11/03 13:58:37;;;;;;;5.13;1.30;;;13.40;99.90;;;;;;6272070;22;20003;-91
2022/11/03 14:01:06;;;;;;;6.32;1.88;;;;;;;;;;6272629;22;20062;-91
2022/11/03 14:03:32;;;;;;;6.75;1.25;;;13.50;99.90;;;;;;6271790;22;20038;-88
2022/11/03 14:05:58;;;;;;;6.75;1.92;;;;;;;;;;6271848;22;20011;-88
2022/11/03 14:08:26;;;;;;;6.18;1.27;;;13.70;99.90;;;;;;6273451;22;20061;-91
2022/11/03 14:10:52;;;;;;;;;;;13.90;99.90;;;;;;6275967;22;20039;-91
2022/11/03 14:13:18;;;;;;;4.03;1.13;;;;;;;;;;6283752;22;19922;-91
2022/11/03 14:15:46;;;;;;;9.05;1.58;;;;;;;;;;6300515;22;20067;-91
2022/11/03 14:18:12;;;;;;;6.18;1.23;;;16.50;99.90;;;;;;6299646;22;20010;-85
2022/11/03 14:20:37;;;;;;;6.88;1.50;;;13.50;99.90;;;;;;6286457;22;20008;-85
2022/11/03 14:23:03;;;;;;;5.82;1.73;;;;;;;;;;6278265;22;20066;-87
2022/11/03 14:25:29;;;;;;;6.55;1.42;;;13.50;99.90;;;;;;6273061;22;20023;-90
2022/11/03 14:27:56;;;;;;;8.80;2.03;;;;;;;;;;6274982;22;20077;-91
2022/11/03 14:30:22;;;;;;;5.22;1.33;;;;;;;;;;6274956;22;20008;-91
2022/11/03 14:32:48;;;;;;;8.05;2.17;;;16.10;99.90;;;;;;6272646;22;20030;-91
2022/11/03 14:35:14;;;;;;;12.50;1.40;;;;;;;;;;6271073;22;20000;-89
2022/11/03 14:37:40;;;;;;;6.90;1.88;;;;;;;;;;6272924;22;20367;-88
2022/11/03 14:40:06;;;;;;;12.55;1.95;;;13.60;99.90;;;;;;6271216;22;20008;-90
2022/11/03 14:42:32;;;;;;;6.78;1.50;;;13.50;99.90;;;;;;6273102;22;20015;-92
2022/11/03 14:44:58;;;;;;;8.20;1.95;;;;;;;;;;6273373;22;20007;-89
2022/11/03 14:47:24;;;;;;;5.40;1.33;;;;;;;;;;6271401;22;20031;-89
2022/11/03 14:49:50;;;;;;;5.15;1.40;;;13.50;99.90;;;;;;6269071;22;20004;-86
2022/11/03 14:52:17;;;;;;;6.65;1.63;;;10.20;99.90;;;;;;6273306;22;20054;-89
2022/11/03 14:54:43;;;;;;;8.43;1.63;;;13.40;99.90;;;;;;6273523;22;20408;-88
2022/11/03 14:57:09;;;;;;;7.63;2.15;;;13.40;99.90;;;;;;6272819;22;20004;-92
2022/11/03 14:59:35;;;;;;;7.82;1.55;;;;;;;;;;6271148;22;20347;-89
2022/11/03 15:02:02;;;;;;;6.10;1.70;;;13.50;99.90;;;;;;6273069;22;20003;-87
2022/11/03 15:04:28;;;;;;;10.75;1.73;;;;;;;;;;6272087;22;19999;-91
2022/11/03 15:06:54;;;;;;;8.43;1.88;;;;;;;;;;6271707;22;20012;-88
2022/11/03 15:09:20;;;;;;;8.88;2.13;;;13.40;99.90;;;;;;6271585;22;20053;-87
2022/11/03 15:11:46;;;;;;;8.30;1.60;;;13.30;99.90;;;;;;6272943;22;20039;-88
2022/11/03 15:14:12;;;;;;;8.60;1.50;;;13.30;99.90;;;;;;6272128;22;20081;-88
2022/11/03 15:16:39;;;;;;;9.18;1.58;;;13.20;99.90;;;;;;6273579;22;20000;-89
2022/11/03 15:19:06;;;;;;;8.07;1.55;;;;;;;;;;6273271;22;20078;-86
2022/11/03 15:21:32;;;;;;;9.82;1.88;;;13.20;99.90;;;;;;6272207;22;20011;-87
2022/11/03 15:23:58;;;;;;;9.75;2.13;;;;;;;;;;6271283;22;20422;-88
2022/11/03 15:26:25;;;;;;;13.05;2.10;;;13.20;99.90;;;;;;6272803;22;20007;-88
2022/11/03 15:28:52;;;;;;;10.05;1.90;;;;;;;;;;6274379;22;19996;-88
2022/11/03 15:31:18;;;;;;;9.18;1.63;;;13.00;99.90;;;;;;6270930;22;20008;-88
2022/11/03 15:33:44;;;;;;;10.05;1.60;;;;;;;;;;6273583;22;20026;-91
2022/11/03 15:36:10;;;;;;;9.05;1.60;;;13.00;99.90;;;;;;6271907;22;20003;-88
2022/11/03 15:38:37;;;;;;;10.43;2.08;;;;;;;;;;6270524;22;20385;-88
2022/11/03 15:41:15;;;;;;;8.45;2.05;;;;;;;;;;6272799;22;20024;-89
2022/11/03 15:43:46;;;;;;;9.40;1.95;;;13.00;99.90;;;;;;6275071;22;20393;-90
2022/11/03 15:46:13;;;;;;;5.97;1.52;;;12.90;99.90;;;;;;6276823;22;20678;-89
2022/11/03 15:48:39;;;;;;;12.75;2.90;;;;;;;;;;6277107;22;20004;-92
2022/11/03 15:51:06;;;;;;;10.77;1.90;;;;;;;;;;6275347;22;20031;-88
2022/11/03 15:53:31;;;;;;;11.32;1.73;;;13.00;99.90;;;;;;6272736;22;20004;-87
2022/11/03 15:55:57;;;;;;;6.82;1.88;;;;;;;;;;6271883;22;20026;-87
2022/11/03 15:58:23;;;;;;;8.65;1.58;;;12.90;99.90;;;;;;6273545;22;20072;-88
2022/11/03 16:00:49;;;;;;;8.13;1.88;;;12.80;99.90;;;;;;6273416;22;20000;-88
2022/11/03 16:03:15;;;;;;;10.75;2.60;;;9.60;99.90;;;;;;6274686;22;19996;-93
2022/11/03 16:05:41;;;;;;;9.18;2.30;;;;;;;;;;6277381;22;20008;-95
2022/11/03 16:08:07;;;;;;;12.00;2.70;;;;;;;;;;6277534;22;20000;-87
2022/11/03 16:10:33;;;;;;;8.38;2.58;;;12.80;99.90;;;;;;6271594;22;20008;-88
2022/11/03 16:12:58;;;;;;;9.07;3.08;;;12.80;99.90;;;;;;6273178;22;20341;-88
2022/11/03 16:15:25;;;;;;;12.73;2.78;;;;;;;;;;6276377;22;20034;-89
2022/11/03 16:17:50;;;;;;;11.50;2.47;;;12.70;99.90;;;;;;6271087;22;20023;-88
2022/11/03 16:20:16;;;;;;;8.32;2.15;;;12.70;99.90;;;;;;6274763;22;20425;-87
2022/11/03 16:22:42;;;;;;;7.97;2.38;;;;;;;;;;6274709;22;20059;-88
2022/11/03 16:25:08;;;;;;;13.45;2.33;;;12.60;99.90;;;;;;6274331;22;20015;-89
2022/11/03 16:27:34;;;;;;;11.57;3.00;;;12.60;99.90;;;;;;6273685;22;19999;-87
2022/11/03 16:30:00;;;;;;;11.02;2.58;;;12.60;99.90;;;;;;6271987;22;20343;-87
2022/11/03 16:32:26;;;;;;;13.85;2.28;;;;;;;;;;6275902;22;20395;-88
2022/11/03 16:34:52;;;;;;;14.48;2.65;;;;;;;;;;6273463;22;20022;-88
2022/11/03 16:37:18;;;;;;;8.15;2.72;;;;;;;;;;6271993;22;20007;-92
2022/11/03 16:39:44;;;;;;;9.05;2.50;;;;;;;;;;6276773;22;19999;-92
2022/11/03 16:42:10;;;;;;;11.68;2.78;;;;;;;;;;6274605;22;20000;-88
2022/11/03 16:44:36;;;;;;;13.75;2.50;;;;;;;;;;6275202;22;20000;-87
2022/11/03 16:47:02;;;;;;;11.90;2.60;;;;;;;;;;6275306;22;20025;-91
2022/11/03 16:49:28;;;;;;;10.43;2.50;;;;;;;;;;6279125;22;20039;-90
2022/11/03 16:51:54;;;;;;;15.23;2.78;;;;;;;;;;6296547;22;20022;-89
2022/11/03 16:54:21;;;;;;;17.85;3.35;;;;;;;;;;6297648;22;20004;-91